createdAt,value
2022-12-01T00:01:47.693Z,99.63
2022-12-01T00:11:50.688Z,99.57
2022-12-01T00:21:55.276Z,99.48
2022-12-01T00:31:58.798Z,99.52
2022-12-01T00:42:03.284Z,99.85
2022-12-01T00:52:07.545Z,100.00
2022-12-01T01:02:12.039Z,100.00
2022-12-01T01:12:15.036Z,100.00
2022-12-01T01:22:19.410Z,100.00
2022-12-01T01:32:22.366Z,100.00
2022-12-01T01:42:26.585Z,99.65
2022-12-01T01:52:29.633Z,99.04
2022-12-01T02:02:34.728Z,98.72
2022-12-01T02:13:01.901Z,98.65
2022-12-01T02:23:33.064Z,98.91
2022-12-01T02:33:42.084Z,99.03
2022-12-01T02:43:54.210Z,99.30
2022-12-01T02:54:00.651Z,99.29
2022-12-01T03:04:33.955Z,99.34
2022-12-01T03:14:46.682Z,99.31
2022-12-01T03:24:52.959Z,98.98
2022-12-01T03:35:00.641Z,99.29
2022-12-01T03:45:08.285Z,99.28
2022-12-01T03:55:16.346Z,99.43
2022-12-01T04:05:24.998Z,99.23
2022-12-01T04:15:29.840Z,99.47
2022-12-01T04:25:32.757Z,99.36
2022-12-01T04:35:37.153Z,99.55
2022-12-01T04:45:40.110Z,99.87
2022-12-01T04:55:44.407Z,99.89
2022-12-01T05:05:47.413Z,100.00
2022-12-01T05:15:51.839Z,99.94
2022-12-01T05:25:55.532Z,100.00
2022-12-01T05:35:59.863Z,100.00
2022-12-01T05:46:03.145Z,100.00
2022-12-01T05:56:09.149Z,100.00
2022-12-01T06:06:12.266Z,100.00
2022-12-01T06:16:16.645Z,100.00
2022-12-01T06:26:19.731Z,100.00
2022-12-01T06:36:24.080Z,100.00
2022-12-01T06:46:27.025Z,100.00
2022-12-01T06:56:31.446Z,99.67
2022-12-01T07:06:34.895Z,99.36
2022-12-01T07:16:39.201Z,98.80
2022-12-01T07:26:42.822Z,98.66
2022-12-01T07:36:47.163Z,98.29
2022-12-01T07:46:50.435Z,97.76
2022-12-01T07:56:54.759Z,96.81
2022-12-01T08:06:57.809Z,95.92
2022-12-01T08:17:02.165Z,96.21
2022-12-01T08:27:05.505Z,95.61
2022-12-01T08:37:10.076Z,94.32
2022-12-01T08:47:18.489Z,94.80
2022-12-01T08:57:23.106Z,94.76
2022-12-01T09:07:26.902Z,93.74
2022-12-01T09:17:31.393Z,93.52
2022-12-01T09:27:34.352Z,92.29
2022-12-01T09:37:38.682Z,90.98
2022-12-01T09:47:42.675Z,91.14
2022-12-01T09:57:49.126Z,90.49
2022-12-01T10:07:56.933Z,88.98
2022-12-01T10:18:18.630Z,89.02
2022-12-01T10:28:51.585Z,88.27
2022-12-01T10:38:56.241Z,86.12
2022-12-01T10:49:01.144Z,87.71
2022-12-01T10:59:23.484Z,88.71
2022-12-01T11:09:29.162Z,88.56
2022-12-01T11:19:35.664Z,88.96
2022-12-01T11:29:40.881Z,87.65
2022-12-01T11:39:47.789Z,87.63
2022-12-01T11:49:54.945Z,86.56
2022-12-01T11:59:59.270Z,87.08
2022-12-01T12:10:17.635Z,85.45
2022-12-01T12:20:35.741Z,84.82
2022-12-01T12:30:49.015Z,81.69
2022-12-01T12:40:57.217Z,81.22
2022-12-01T12:51:11.454Z,79.82
2022-12-01T13:01:22.299Z,79.84
2022-12-01T13:11:30.547Z,80.40
2022-12-01T13:21:43.128Z,80.12
2022-12-01T13:31:48.745Z,80.17
2022-12-01T13:42:06.245Z,81.18
2022-12-01T13:52:33.752Z,80.71
2022-12-01T14:02:38.518Z,80.65
2022-12-01T14:12:46.776Z,81.51
2022-12-01T14:23:05.728Z,81.75
2022-12-01T14:33:53.779Z,82.21
2022-12-01T14:44:05.964Z,83.13
2022-12-01T14:54:18.493Z,84.50
2022-12-01T15:04:23.062Z,84.93
2022-12-01T15:14:33.195Z,85.60
2022-12-01T15:24:37.733Z,86.59
2022-12-01T15:34:43.268Z,87.30
2022-12-01T15:45:00.585Z,86.89
2022-12-01T15:55:06.940Z,86.89
2022-12-01T16:05:28.062Z,87.29
2022-12-01T16:15:31.042Z,87.50
2022-12-01T16:25:38.105Z,87.75
2022-12-01T16:35:41.121Z,88.13
2022-12-01T16:45:46.876Z,88.26
2022-12-01T16:55:54.281Z,88.27
2022-12-01T17:06:01.238Z,88.39
2022-12-01T17:16:07.080Z,88.46
2022-12-01T17:26:14.052Z,88.22
2022-12-01T17:36:17.820Z,88.61
2022-12-01T17:46:22.264Z,88.78
2022-12-01T17:56:25.268Z,89.30
2022-12-01T18:06:29.817Z,89.75
2022-12-01T18:16:33.591Z,90.07
2022-12-01T18:26:39.816Z,90.80
2022-12-01T18:36:43.035Z,91.30
2022-12-01T18:46:47.707Z,92.02
2022-12-01T18:56:53.431Z,92.17
2022-12-01T19:06:57.845Z,92.29
2022-12-01T19:17:00.877Z,93.08
2022-12-01T19:27:05.591Z,92.88
2022-12-01T19:37:08.565Z,93.14
2022-12-01T19:47:14.680Z,93.77
2022-12-01T19:57:20.697Z,93.44
2022-12-01T20:07:25.139Z,93.50
2022-12-01T20:17:28.569Z,94.09
2022-12-01T20:27:33.250Z,93.83
2022-12-01T20:37:36.293Z,94.02
2022-12-01T20:47:41.973Z,94.09
2022-12-01T20:57:45.042Z,94.57
2022-12-01T21:07:49.646Z,94.73
2022-12-01T21:17:57.448Z,94.47
2022-12-01T21:28:19.202Z,93.73
2022-12-01T21:38:22.409Z,93.12
2022-12-01T21:48:30.945Z,93.13
2022-12-01T21:58:37.433Z,93.64
2022-12-01T22:08:46.455Z,93.47
2022-12-01T22:18:52.713Z,93.67
2022-12-01T22:29:00.245Z,93.50
2022-12-01T22:39:10.934Z,94.40
2022-12-01T22:49:22.278Z,94.12
2022-12-01T22:59:30.643Z,94.04
2022-12-01T23:09:37.996Z,94.12
2022-12-01T23:19:40.885Z,93.57
2022-12-01T23:29:45.424Z,93.73
2022-12-01T23:39:48.521Z,93.68
2022-12-01T23:49:59.207Z,94.34
